createdAt,value
2019-03-17T00:00:53.439Z,4.63
2019-03-17T00:03:32.000Z,5.33
2019-03-17T00:06:08.454Z,4.97
2019-03-17T00:08:45.282Z,4.67
2019-03-17T00:11:18.578Z,5.13
2019-03-17T00:13:54.210Z,4.00
2019-03-17T00:16:33.322Z,4.07
2019-03-17T00:19:10.474Z,4.50
2019-03-17T00:21:43.134Z,3.70
2019-03-17T00:24:23.025Z,3.87
2019-03-17T00:26:53.853Z,4.90
2019-03-17T00:29:26.626Z,4.13
2019-03-17T00:32:02.071Z,4.60
2019-03-17T00:34:44.142Z,3.80
2019-03-17T00:37:15.189Z,4.20
2019-03-17T00:39:56.587Z,3.70
2019-03-17T00:42:35.311Z,4.77
2019-03-17T00:45:14.212Z,3.77
2019-03-17T00:47:51.667Z,4.03
2019-03-17T00:50:28.605Z,4.30
2019-03-17T00:53:11.573Z,4.40
2019-03-17T00:56:21.126Z,4.00
2019-03-17T00:59:06.346Z,4.27
2019-03-17T01:02:35.226Z,4.40
2019-03-17T01:05:16.267Z,4.23
2019-03-17T01:07:48.516Z,4.50
2019-03-17T01:10:29.681Z,4.30
2019-03-17T01:13:05.467Z,4.80
2019-03-17T01:15:37.892Z,4.60
2019-03-17T01:18:20.268Z,4.33
2019-03-17T01:20:55.346Z,4.87
2019-03-17T01:23:25.603Z,4.07
2019-03-17T01:25:58.991Z,4.23
2019-03-17T01:28:33.636Z,3.70
2019-03-17T01:31:18.405Z,4.07
2019-03-17T01:33:58.507Z,4.27
2019-03-17T01:36:44.945Z,3.90
2019-03-17T01:39:28.372Z,3.80
2019-03-17T01:42:01.439Z,4.53
2019-03-17T01:44:38.025Z,4.10
2019-03-17T01:47:12.854Z,3.87
2019-03-17T01:49:46.371Z,4.73
2019-03-17T01:52:16.812Z,4.70
2019-03-17T01:54:49.617Z,4.53
2019-03-17T01:57:26.123Z,4.40
2019-03-17T02:00:02.402Z,5.13
2019-03-17T02:02:40.786Z,5.37
2019-03-17T02:05:21.872Z,4.87
2019-03-17T02:07:53.069Z,4.50
2019-03-17T02:10:27.672Z,4.80
2019-03-17T02:13:08.943Z,5.07
2019-03-17T02:15:50.958Z,5.43
2019-03-17T02:18:23.981Z,4.73
2019-03-17T02:20:58.491Z,5.77
2019-03-17T02:23:33.130Z,5.10
2019-03-17T02:26:10.322Z,5.10
2019-03-17T02:28:43.443Z,4.60
2019-03-17T02:31:18.332Z,5.10
2019-03-17T02:33:50.918Z,5.80
2019-03-17T02:36:25.295Z,4.43
2019-03-17T02:39:02.009Z,4.73
2019-03-17T02:41:43.001Z,5.33
2019-03-17T02:44:18.371Z,5.27
2019-03-17T02:46:59.376Z,4.60
2019-03-17T02:49:51.630Z,5.30
2019-03-17T02:52:31.981Z,5.03
2019-03-17T02:55:16.636Z,5.23
2019-03-17T02:57:56.160Z,5.27
2019-03-17T03:00:40.804Z,5.07
2019-03-17T03:03:25.760Z,4.43
2019-03-17T03:06:08.547Z,4.77
2019-03-17T03:08:47.358Z,4.43
2019-03-17T03:11:24.184Z,3.83
2019-03-17T03:14:04.959Z,4.43
2019-03-17T03:16:36.537Z,3.83
2019-03-17T03:19:08.057Z,4.27
2019-03-17T03:21:39.410Z,4.47
2019-03-17T03:24:11.483Z,4.10
2019-03-17T03:26:42.341Z,5.40
2019-03-17T03:29:17.213Z,5.13
2019-03-17T03:31:49.940Z,4.70
2019-03-17T03:34:22.574Z,4.40
2019-03-17T03:36:57.642Z,5.50
2019-03-17T03:39:31.172Z,5.77
2019-03-17T03:42:04.273Z,5.17
2019-03-17T03:44:34.949Z,5.53
2019-03-17T03:47:07.174Z,5.83
2019-03-17T03:49:38.632Z,5.70
2019-03-17T03:52:16.216Z,5.93
2019-03-17T03:54:52.485Z,5.70
2019-03-17T03:57:34.581Z,5.77
2019-03-17T04:00:13.204Z,5.57
2019-03-17T04:02:47.366Z,6.43
2019-03-17T04:05:22.212Z,6.07
2019-03-17T04:11:34.355Z,5.43
2019-03-17T04:14:08.707Z,5.63
2019-03-17T04:16:42.387Z,5.40
2019-03-17T04:19:15.634Z,5.60
2019-03-17T04:21:47.622Z,5.37
2019-03-17T04:24:20.231Z,5.63
2019-03-17T04:26:50.506Z,6.00
2019-03-17T04:29:21.053Z,6.17
2019-03-17T04:31:52.160Z,6.07
2019-03-17T04:34:25.048Z,5.47
2019-03-17T04:36:59.341Z,5.17
2019-03-17T04:39:31.720Z,5.33
2019-03-17T04:42:10.661Z,4.60
2019-03-17T04:44:44.157Z,3.97
2019-03-17T04:47:35.712Z,4.43
2019-03-17T04:50:10.691Z,4.73
2019-03-17T04:52:46.676Z,5.10
2019-03-17T04:55:19.139Z,4.80
2019-03-17T04:57:53.240Z,4.80
2019-03-17T05:00:28.073Z,4.80
2019-03-17T05:03:01.530Z,4.83
2019-03-17T05:05:39.569Z,6.60
2019-03-17T05:08:14.044Z,6.20
2019-03-17T05:10:48.022Z,5.30
2019-03-17T05:13:24.698Z,5.10
2019-03-17T05:15:56.547Z,5.03
2019-03-17T05:18:37.722Z,6.00
2019-03-17T05:21:26.438Z,5.23
2019-03-17T05:24:01.350Z,5.80
2019-03-17T05:26:35.734Z,5.63
2019-03-17T05:29:10.791Z,5.77
2019-03-17T05:31:46.856Z,5.40
2019-03-17T05:34:18.055Z,4.63
2019-03-17T05:36:48.724Z,5.80
2019-03-17T05:39:22.057Z,5.37
2019-03-17T05:41:55.405Z,5.97
2019-03-17T05:44:27.396Z,5.57
2019-03-17T05:47:07.621Z,5.50
2019-03-17T05:49:43.330Z,5.53
2019-03-17T05:52:17.961Z,6.17
2019-03-17T05:54:48.757Z,5.10
2019-03-17T05:57:26.230Z,6.77
2019-03-17T06:00:11.671Z,6.13
2019-03-17T06:02:49.980Z,6.80
2019-03-17T06:05:34.399Z,6.70
2019-03-17T06:08:09.904Z,6.83
2019-03-17T06:10:59.104Z,6.30
2019-03-17T06:13:28.634Z,7.87
2019-03-17T06:16:05.391Z,7.67
2019-03-17T06:18:37.779Z,6.80
2019-03-17T06:21:10.520Z,7.67
2019-03-17T06:23:41.637Z,8.50
2019-03-17T06:26:13.798Z,5.30
2019-03-17T06:28:45.238Z,8.33
2019-03-17T06:31:15.835Z,6.87
2019-03-17T06:33:46.413Z,7.67
2019-03-17T06:36:17.155Z,6.33
2019-03-17T06:38:47.879Z,6.57
2019-03-17T06:41:19.020Z,7.60
2019-03-17T06:43:49.556Z,8.03
2019-03-17T06:46:21.923Z,7.10
2019-03-17T06:48:52.999Z,7.43
2019-03-17T06:51:24.088Z,7.03
2019-03-17T06:53:56.706Z,7.17
2019-03-17T06:56:28.377Z,6.37
2019-03-17T06:58:59.963Z,7.90
2019-03-17T07:01:30.940Z,8.57
2019-03-17T07:04:02.800Z,6.03
2019-03-17T07:06:34.781Z,6.70
2019-03-17T07:09:08.414Z,8.83
2019-03-17T07:11:39.731Z,9.07
2019-03-17T07:14:10.472Z,8.73
2019-03-17T07:16:41.999Z,9.53
2019-03-17T07:19:15.071Z,8.83
2019-03-17T07:21:48.619Z,8.80
2019-03-17T07:24:23.259Z,8.17
2019-03-17T07:26:55.214Z,8.00
2019-03-17T07:29:45.141Z,7.67
2019-03-17T07:32:16.664Z,8.20
2019-03-17T07:34:47.901Z,7.37
2019-03-17T07:37:20.100Z,7.40
2019-03-17T07:39:52.139Z,8.00
2019-03-17T07:42:22.621Z,7.83
2019-03-17T07:44:55.328Z,7.80
2019-03-17T07:47:30.593Z,7.87
2019-03-17T07:50:04.312Z,8.40
2019-03-17T07:52:35.459Z,8.30
2019-03-17T07:55:08.740Z,7.33
2019-03-17T07:57:40.574Z,6.70
2019-03-17T08:00:14.453Z,7.63
2019-03-17T08:02:44.950Z,7.47
2019-03-17T08:05:17.803Z,8.37
2019-03-17T08:07:48.329Z,7.47
2019-03-17T08:10:20.840Z,7.60
2019-03-17T08:12:51.504Z,7.10
2019-03-17T08:15:24.122Z,7.60
2019-03-17T08:17:56.870Z,7.53
2019-03-17T08:20:29.715Z,8.77
2019-03-17T08:23:01.838Z,5.83
2019-03-17T08:25:32.214Z,13.60
2019-03-17T08:28:02.830Z,8.23
2019-03-17T08:30:36.419Z,5.97
2019-03-17T08:33:08.828Z,6.20
2019-03-17T08:35:40.557Z,10.83
2019-03-17T08:38:21.220Z,6.30
2019-03-17T08:40:44.113Z,6.30
2019-03-17T08:43:14.524Z,7.03
2019-03-17T08:45:45.058Z,12.23
2019-03-17T08:48:16.264Z,5.53
2019-03-17T08:50:48.520Z,7.10
2019-03-17T08:53:19.432Z,8.73
2019-03-17T08:55:50.034Z,5.83
2019-03-17T08:58:23.610Z,5.53
2019-03-17T09:00:54.081Z,5.67
2019-03-17T09:03:26.801Z,6.73
2019-03-17T09:06:05.370Z,6.40
2019-03-17T09:08:37.047Z,4.47
2019-03-17T09:11:09.070Z,4.80
2019-03-17T09:13:40.716Z,4.67
2019-03-17T09:16:10.572Z,4.30
2019-03-17T09:18:42.538Z,5.30
2019-03-17T09:21:16.931Z,3.63
2019-03-17T09:23:49.142Z,4.80
2019-03-17T09:26:19.848Z,2.87
2019-03-17T09:28:56.511Z,2.70
2019-03-17T09:31:26.503Z,2.73
2019-03-17T09:33:58.203Z,3.90
2019-03-17T09:36:32.229Z,4.87
2019-03-17T09:39:02.148Z,3.03
2019-03-17T09:41:32.708Z,4.87
2019-03-17T09:44:02.857Z,3.43
2019-03-17T09:46:35.788Z,3.40
2019-03-17T09:49:11.503Z,4.30
2019-03-17T09:51:42.258Z,4.90
2019-03-17T09:54:12.941Z,3.90
2019-03-17T09:56:47.046Z,4.07
2019-03-17T09:59:20.374Z,3.83
2019-03-17T10:01:52.428Z,2.63
2019-03-17T10:04:22.963Z,3.20
2019-03-17T10:06:54.108Z,2.93
2019-03-17T10:09:24.464Z,4.37
2019-03-17T10:11:56.860Z,3.53
2019-03-17T10:14:27.488Z,3.33
2019-03-17T10:17:00.724Z,2.83
2019-03-17T10:19:32.539Z,3.67
2019-03-17T10:22:04.761Z,3.90
2019-03-17T10:24:35.123Z,2.33
2019-03-17T10:27:09.828Z,2.17
2019-03-17T10:29:40.738Z,3.20
2019-03-17T10:32:13.241Z,3.50
2019-03-17T10:34:44.621Z,3.73
2019-03-17T10:37:18.250Z,4.10
2019-03-17T10:39:50.434Z,3.90
2019-03-17T10:42:20.773Z,4.00
2019-03-17T10:44:51.502Z,4.27
2019-03-17T10:47:23.531Z,4.23
2019-03-17T10:49:56.865Z,4.30
2019-03-17T10:52:26.785Z,4.17
2019-03-17T10:54:58.311Z,4.20
2019-03-17T10:57:30.579Z,3.27
2019-03-17T11:00:03.727Z,3.60
2019-03-17T11:02:36.110Z,3.70
2019-03-17T11:05:07.651Z,2.90
2019-03-17T11:07:38.224Z,2.93
2019-03-17T11:10:12.089Z,3.10
2019-03-17T11:12:42.692Z,2.97
2019-03-17T11:15:23.097Z,3.40
2019-03-17T11:17:55.098Z,3.03
2019-03-17T11:20:25.429Z,2.87
2019-03-17T11:22:57.335Z,2.87
2019-03-17T11:25:29.496Z,3.37
2019-03-17T11:28:00.423Z,2.60
2019-03-17T11:30:33.641Z,2.97
2019-03-17T11:33:05.405Z,3.37
2019-03-17T11:35:36.316Z,2.77
2019-03-17T11:38:06.712Z,2.40
2019-03-17T11:40:36.759Z,2.70
2019-03-17T11:43:06.950Z,2.80
2019-03-17T11:45:58.181Z,4.27
2019-03-17T11:48:33.501Z,3.00
2019-03-17T11:51:04.636Z,2.43
2019-03-17T11:53:39.757Z,3.40
2019-03-17T11:56:11.745Z,2.40
2019-03-17T11:58:44.938Z,2.07
2019-03-17T12:01:18.144Z,2.40
2019-03-17T12:03:48.664Z,3.13
2019-03-17T12:06:19.050Z,2.97
2019-03-17T12:08:50.195Z,1.90
2019-03-17T12:11:20.885Z,3.10
2019-03-17T12:13:59.703Z,2.00
2019-03-17T12:16:31.385Z,5.20
2019-03-17T12:19:02.720Z,4.10
2019-03-17T12:21:33.412Z,2.47
2019-03-17T12:24:15.394Z,4.53
2019-03-17T12:26:48.411Z,2.30
2019-03-17T12:29:23.868Z,2.77
2019-03-17T12:31:55.538Z,3.13
2019-03-17T12:34:28.403Z,2.83
2019-03-17T12:37:08.757Z,2.53
2019-03-17T12:39:49.014Z,3.27
2019-03-17T12:42:23.700Z,2.40
2019-03-17T12:44:54.128Z,2.77
2019-03-17T12:47:24.984Z,2.80
2019-03-17T12:50:18.448Z,2.53
2019-03-17T12:52:51.659Z,2.93
2019-03-17T12:55:23.593Z,2.63
2019-03-17T12:57:54.732Z,2.13
2019-03-17T13:00:26.818Z,2.90
2019-03-17T13:02:58.500Z,2.53
2019-03-17T13:05:28.694Z,3.27
2019-03-17T13:08:00.810Z,2.20
2019-03-17T13:10:36.617Z,2.57
2019-03-17T13:16:32.445Z,2.80
2019-03-17T13:19:08.250Z,2.47
2019-03-17T13:21:40.078Z,2.70
2019-03-17T13:24:10.574Z,2.37
2019-03-17T13:26:41.991Z,2.87
2019-03-17T13:29:12.506Z,2.50
2019-03-17T13:31:43.884Z,2.50
2019-03-17T13:34:14.624Z,2.63
2019-03-17T13:36:46.655Z,2.50
2019-03-17T13:39:17.582Z,2.63
2019-03-17T13:41:48.709Z,2.37
2019-03-17T13:44:19.387Z,2.13
2019-03-17T13:46:50.907Z,1.70
2019-03-17T13:49:23.993Z,2.40
2019-03-17T13:51:56.017Z,2.57
2019-03-17T13:54:27.134Z,1.83
2019-03-17T13:56:59.806Z,2.87
2019-03-17T13:59:32.090Z,2.93
2019-03-17T14:02:05.246Z,2.60
2019-03-17T14:04:36.821Z,2.60
2019-03-17T14:07:10.140Z,2.90
2019-03-17T14:09:40.998Z,5.77
2019-03-17T14:12:11.267Z,2.60
2019-03-17T14:14:42.032Z,2.90
2019-03-17T14:17:12.065Z,2.80
2019-03-17T14:19:42.996Z,2.53
2019-03-17T14:22:13.034Z,2.40
2019-03-17T14:24:44.535Z,1.93
2019-03-17T14:27:15.067Z,3.20
2019-03-17T14:29:45.328Z,2.30
2019-03-17T14:32:15.781Z,2.23
2019-03-17T14:34:47.711Z,2.60
2019-03-17T14:37:19.193Z,2.40
2019-03-17T14:39:49.212Z,3.13
2019-03-17T14:42:22.695Z,3.47
2019-03-17T14:44:54.796Z,2.50
2019-03-17T14:47:27.454Z,2.77
2019-03-17T14:49:59.699Z,3.03
2019-03-17T14:52:30.126Z,2.83
2019-03-17T14:55:01.033Z,2.67
2019-03-17T14:57:33.533Z,3.10
2019-03-17T15:00:09.140Z,2.80
2019-03-17T15:02:41.171Z,3.00
2019-03-17T15:05:12.647Z,3.33
2019-03-17T15:07:45.985Z,3.50
2019-03-17T15:10:23.401Z,2.97
2019-03-17T15:12:53.487Z,3.40
2019-03-17T15:15:24.984Z,2.60
2019-03-17T15:17:55.671Z,3.10
2019-03-17T15:20:27.808Z,2.40
2019-03-17T15:22:58.244Z,2.80
2019-03-17T15:25:28.967Z,4.27
2019-03-17T15:28:01.437Z,4.07
2019-03-17T15:30:37.359Z,4.57
2019-03-17T15:33:13.300Z,4.50
2019-03-17T15:35:45.878Z,5.67
2019-03-17T15:38:16.872Z,4.87
2019-03-17T15:40:48.155Z,15.97
2019-03-17T15:43:20.959Z,3.93
2019-03-17T15:45:54.616Z,3.30
2019-03-17T15:48:24.910Z,4.07
2019-03-17T15:50:55.984Z,4.13
2019-03-17T15:53:27.908Z,4.40
2019-03-17T15:55:59.954Z,3.07
2019-03-17T15:58:30.273Z,6.00
2019-03-17T16:01:01.174Z,3.70
2019-03-17T16:03:31.465Z,4.10
2019-03-17T16:06:05.133Z,7.37
2019-03-17T16:08:35.677Z,3.87
2019-03-17T16:11:06.305Z,4.80
2019-03-17T16:13:36.837Z,5.03
2019-03-17T16:16:07.187Z,9.00
2019-03-17T16:18:38.809Z,11.70
2019-03-17T16:21:11.122Z,3.40
2019-03-17T16:23:41.520Z,3.37
2019-03-17T16:26:13.992Z,4.50
2019-03-17T16:28:45.179Z,5.03
2019-03-17T16:31:17.554Z,4.80
2019-03-17T16:33:47.573Z,5.57
2019-03-17T16:36:20.356Z,5.17
2019-03-17T16:38:51.824Z,4.10
2019-03-17T16:41:22.367Z,3.53
2019-03-17T16:43:53.028Z,3.20
2019-03-17T16:46:22.892Z,4.53
2019-03-17T16:48:54.511Z,3.63
2019-03-17T16:51:25.334Z,4.60
2019-03-17T16:53:57.156Z,4.00
2019-03-17T16:56:30.372Z,5.27
2019-03-17T16:59:01.563Z,10.40
2019-03-17T17:01:34.028Z,8.83
2019-03-17T17:04:05.679Z,14.40
2019-03-17T17:06:36.264Z,4.50
2019-03-17T17:09:10.148Z,3.37
2019-03-17T17:11:40.218Z,4.40
2019-03-17T17:14:11.490Z,4.67
2019-03-17T17:16:42.721Z,7.80
2019-03-17T17:19:13.069Z,3.20
2019-03-17T17:21:44.912Z,3.30
2019-03-17T17:24:15.237Z,3.40
2019-03-17T17:26:48.516Z,5.27
2019-03-17T17:29:24.991Z,3.60
2019-03-17T17:31:55.405Z,3.47
2019-03-17T17:34:26.604Z,4.40
2019-03-17T17:36:57.343Z,3.60
2019-03-17T17:39:32.610Z,3.57
2019-03-17T17:42:11.837Z,3.33
2019-03-17T17:44:43.558Z,4.53
2019-03-17T17:47:15.007Z,4.93
2019-03-17T17:49:46.818Z,5.93
2019-03-17T17:52:20.375Z,4.73
2019-03-17T17:54:50.909Z,3.77
2019-03-17T17:57:23.271Z,6.37
2019-03-17T17:59:53.587Z,6.40
2019-03-17T18:02:26.837Z,4.03
2019-03-17T18:05:01.615Z,5.80
2019-03-17T18:07:32.487Z,4.50
2019-03-17T18:10:05.601Z,3.07
2019-03-17T18:12:37.574Z,3.50
2019-03-17T18:15:13.543Z,3.53
2019-03-17T18:17:47.032Z,4.10
2019-03-17T18:20:19.668Z,3.97
2019-03-17T18:22:51.135Z,4.07
2019-03-17T18:25:22.577Z,16.03
2019-03-17T18:27:55.067Z,7.17
2019-03-17T18:30:26.499Z,6.40
2019-03-17T18:32:57.536Z,3.13
2019-03-17T18:35:28.486Z,6.10
2019-03-17T18:38:01.136Z,4.53
2019-03-17T18:40:32.845Z,4.00
2019-03-17T18:43:04.548Z,5.27
2019-03-17T18:45:35.405Z,4.47
2019-03-17T18:48:08.026Z,3.23
2019-03-17T18:50:39.929Z,3.30
2019-03-17T18:53:10.781Z,3.73
2019-03-17T18:55:43.415Z,4.90
2019-03-17T18:58:15.386Z,4.50
2019-03-17T19:00:56.960Z,5.30
2019-03-17T19:03:49.541Z,4.73
2019-03-17T19:06:20.060Z,5.20
2019-03-17T19:08:50.944Z,3.77
2019-03-17T19:11:24.567Z,5.00
2019-03-17T19:14:26.115Z,4.03
2019-03-17T19:17:01.865Z,2.90
2019-03-17T19:19:40.195Z,2.53
2019-03-17T19:22:11.501Z,2.50
2019-03-17T19:24:43.828Z,2.80
2019-03-17T19:27:14.671Z,2.50
2019-03-17T19:29:45.105Z,2.50
2019-03-17T19:32:15.804Z,2.37
2019-03-17T19:34:48.034Z,2.37
2019-03-17T19:37:21.554Z,2.20
2019-03-17T19:39:53.884Z,2.27
2019-03-17T19:42:26.724Z,2.93
2019-03-17T19:44:58.568Z,2.93
2019-03-17T19:47:29.305Z,3.90
2019-03-17T19:49:59.838Z,2.53
2019-03-17T19:52:32.118Z,2.93
2019-03-17T19:55:05.766Z,3.10
2019-03-17T19:57:46.234Z,2.70
2019-03-17T20:00:20.036Z,2.20
2019-03-17T20:02:51.923Z,2.40
2019-03-17T20:05:23.971Z,2.00
2019-03-17T20:07:58.631Z,1.70
2019-03-17T20:10:32.081Z,2.57
2019-03-17T20:13:11.369Z,2.53
2019-03-17T20:15:45.206Z,2.63
2019-03-17T20:18:17.881Z,2.77
2019-03-17T20:20:55.839Z,2.10
2019-03-17T20:23:28.361Z,2.57
2019-03-17T20:26:01.717Z,1.67
2019-03-17T20:28:37.156Z,2.77
2019-03-17T20:31:20.789Z,2.20
2019-03-17T20:33:54.983Z,3.10
2019-03-17T20:36:45.265Z,2.60
2019-03-17T20:39:21.867Z,2.80
2019-03-17T20:42:10.058Z,2.87
2019-03-17T20:44:54.916Z,2.03
2019-03-17T20:47:54.633Z,2.80
2019-03-17T20:50:34.866Z,2.57
2019-03-17T20:53:13.718Z,3.13
2019-03-17T21:06:08.142Z,2.13
2019-03-17T21:09:02.031Z,3.10
2019-03-17T21:12:03.109Z,2.80
2019-03-17T21:14:44.085Z,3.10
2019-03-17T21:17:34.123Z,3.90
2019-03-17T21:20:39.000Z,4.00
2019-03-17T21:23:38.631Z,3.60
2019-03-17T21:26:31.671Z,3.70
2019-03-17T21:29:23.386Z,3.13
2019-03-17T21:32:05.322Z,2.53
2019-03-17T21:34:56.672Z,3.07
2019-03-17T21:37:48.258Z,3.53
2019-03-17T21:41:06.582Z,2.70
2019-03-17T21:43:31.353Z,3.22
2019-03-17T21:46:21.071Z,2.10
2019-03-17T21:49:16.073Z,3.57
2019-03-17T21:52:02.440Z,3.13
2019-03-17T21:55:02.610Z,3.67
2019-03-17T22:00:44.123Z,3.33
2019-03-17T22:03:38.725Z,3.23
2019-03-17T22:06:13.013Z,2.90
2019-03-17T22:08:52.891Z,3.20
2019-03-17T22:11:23.569Z,3.30
2019-03-17T22:13:53.617Z,2.67
2019-03-17T22:16:25.842Z,3.33
2019-03-17T22:19:00.361Z,3.50
2019-03-17T22:21:53.023Z,2.70
2019-03-17T22:24:31.042Z,2.57
2019-03-17T22:27:05.566Z,2.90
2019-03-17T22:29:35.949Z,3.27
2019-03-17T22:32:07.541Z,2.60
2019-03-17T22:34:45.354Z,2.80
2019-03-17T22:37:17.488Z,2.70
2019-03-17T22:39:49.305Z,3.23
2019-03-17T22:42:22.636Z,2.67
2019-03-17T22:44:52.786Z,3.47
2019-03-17T22:47:25.986Z,3.50
2019-03-17T22:49:57.809Z,3.67
2019-03-17T22:52:35.360Z,3.70
2019-03-17T22:55:08.208Z,2.93
2019-03-17T22:57:39.660Z,3.10
2019-03-17T23:00:40.583Z,3.93
2019-03-17T23:03:21.864Z,3.90
2019-03-17T23:06:06.560Z,3.90
2019-03-17T23:08:42.236Z,3.63
2019-03-17T23:11:17.843Z,3.27
2019-03-17T23:13:50.163Z,3.00
2019-03-17T23:16:24.958Z,2.17
2019-03-17T23:19:13.628Z,2.30
2019-03-17T23:21:48.963Z,2.37
2019-03-17T23:24:20.513Z,1.97
2019-03-17T23:37:22.178Z,3.10
2019-03-17T23:40:03.857Z,3.67
2019-03-17T23:42:42.027Z,3.67
2019-03-17T23:45:15.717Z,3.10
2019-03-17T23:47:49.458Z,3.70
2019-03-17T23:50:22.756Z,4.40
2019-03-17T23:52:58.598Z,4.30
2019-03-17T23:55:31.812Z,3.93
2019-03-17T23:58:06.962Z,3.33
